Time;durP1;ratioP1;P1;durP2;ratioP2;P2;SDS_P1;SDS_P2;PMS_P1;PMS_P2;Temp;Humidity;BMP_temperature;BMP_pressure;BME280_temperature;BME280_humidity;BME280_pressure;Samples;Min_cycle;Max_cycle;Signal;HPM_P1;HPM_P2
2022/11/07 00:00:05;;;;;;;4.27;3.97;;;;;;;22.42;53.92;97371.56;5055072;28;20204;-31
2022/11/07 00:02:31;;;;;;;3.90;3.60;;;;;;;22.42;53.92;97375.00;5041566;28;20714;-31
2022/11/07 00:04:58;;;;;;;4.03;3.73;;;;;;;22.41;53.91;97380.94;5058320;28;20201;-31
2022/11/07 00:07:25;;;;;;;4.10;3.70;;;;;;;22.37;54.03;97374.03;5068509;28;20204;-31
2022/11/07 00:09:51;;;;;;;4.07;3.77;;;;;;;22.42;53.94;97376.69;5051966;28;20212;-31
2022/11/07 00:12:18;;;;;;;3.73;3.43;;;;;;;22.40;54.08;97378.34;5046563;28;20255;-31
2022/11/07 00:14:44;;;;;;;4.20;3.80;;;;;;;22.39;54.01;97376.63;5053751;28;20682;-31
2022/11/07 00:17:11;;;;;;;3.83;3.53;;;;;;;22.42;53.97;97386.94;5052509;28;20200;-31
2022/11/07 00:19:37;;;;;;;3.63;3.33;;;;;;;22.41;54.10;97386.06;5056867;28;20239;-31
2022/11/07 00:22:04;;;;;;;3.77;3.47;;;;;;;22.39;54.10;97394.53;5055736;28;20635;-31
2022/11/07 00:24:30;;;;;;;3.40;3.10;;;;;;;22.39;53.77;97391.97;5055814;28;20663;-31
2022/11/07 00:26:57;;;;;;;3.70;3.40;;;;;;;22.36;53.88;97389.34;5051575;28;20204;-31
2022/11/07 00:29:23;;;;;;;3.93;3.63;;;;;;;22.40;53.96;97402.25;5049543;28;20203;-31
2022/11/07 00:31:50;;;;;;;3.90;3.50;;;;;;;22.39;53.79;97407.34;5047941;28;20581;-31
2022/11/07 00:34:16;;;;;;;4.20;3.80;;;;;;;22.41;53.73;97416.78;5044324;28;20562;-31
2022/11/07 00:36:43;;;;;;;3.80;3.50;;;;;;;22.41;53.91;97413.38;5048935;28;20533;-31
2022/11/07 00:39:09;;;;;;;3.67;3.37;;;;;;;22.36;54.00;97409.84;5041395;28;20201;-31
2022/11/07 00:41:36;;;;;;;3.80;3.50;;;;;;;22.41;53.96;97416.78;5048563;28;20295;-31
2022/11/07 00:44:02;;;;;;;3.80;3.50;;;;;;;22.39;53.97;97418.47;5049147;28;20207;-31
2022/11/07 00:46:29;;;;;;;3.67;3.30;;;;;;;22.35;53.80;97414.06;5049144;28;20196;-31
2022/11/07 00:48:55;;;;;;;3.40;3.10;;;;;;;22.41;53.89;97427.03;5049746;28;20204;-31
2022/11/07 00:51:24;;;;;;;3.23;3.00;;;;;;;22.42;54.06;97427.91;5048661;28;20605;-31
2022/11/07 00:53:51;;;;;;;3.63;3.33;;;;;;;22.40;54.18;97427.00;5051157;28;20204;-31
2022/11/07 00:56:19;;;;;;;3.73;3.43;;;;;;;22.35;54.05;97416.63;5048407;28;20224;-31
2022/11/07 00:58:46;;;;;;;3.30;3.00;;;;;;;22.22;54.53;97395.81;5047808;28;20213;-31
2022/11/07 01:01:21;;;;;;;3.50;3.20;;;;;;;22.40;54.02;97440.66;5052164;28;20219;-31
2022/11/07 01:06:34;;;;;;;3.60;3.30;;;;;;;22.42;53.91;97443.28;5057909;28;20471;-31
2022/11/07 01:09:00;;;;;;;3.67;3.37;;;;;;;22.41;53.86;97439.00;5047276;28;20204;-31
2022/11/07 01:11:27;;;;;;;3.63;3.33;;;;;;;22.35;53.73;97426.88;5049048;28;20236;-31
2022/11/07 01:13:55;;;;;;;3.40;3.20;;;;;;;22.40;53.91;97438.09;5053151;28;20204;-31
2022/11/07 01:16:21;;;;;;;3.63;3.33;;;;;;;22.41;53.81;97441.53;5052703;28;20691;-31
2022/11/07 01:18:48;;;;;;;3.30;3.00;;;;;;;22.41;53.86;97436.44;5053037;28;20583;-31
2022/11/07 01:21:14;;;;;;;3.47;3.17;;;;;;;22.41;54.10;97441.53;5060354;28;20231;-31
2022/11/07 01:23:42;;;;;;;3.47;3.17;;;;;;;22.41;53.85;97441.53;5052495;28;20212;-31
2022/11/07 01:26:09;;;;;;;3.50;3.20;;;;;;;22.42;53.92;97445.81;5044853;28;20459;-31
2022/11/07 01:28:36;;;;;;;3.37;3.07;;;;;;;22.40;53.76;97445.78;5052116;28;20208;-31
2022/11/07 01:31:04;;;;;;;3.37;3.07;;;;;;;22.41;54.09;97449.22;5052225;28;20227;-31
2022/11/07 01:33:30;;;;;;;3.30;3.03;;;;;;;22.41;53.90;97441.53;5052118;28;20212;-31
2022/11/07 01:36:04;;;;;;;3.50;3.20;;;;;;;22.41;54.10;97441.53;5058705;28;20714;-31
2022/11/07 01:38:31;;;;;;;3.20;3.00;;;;;;;22.40;54.04;97443.22;5056535;28;20658;-31
2022/11/07 01:43:46;;;;;;;3.33;3.07;;;;;;;22.41;54.00;97452.63;5052022;28;20223;-31
2022/11/07 01:46:12;;;;;;;3.40;3.10;;;;;;;22.40;54.15;97443.22;5048081;28;20203;-31
2022/11/07 01:48:39;;;;;;;3.23;2.93;;;;;;;22.40;54.08;97443.22;5055297;28;20212;-31
2022/11/07 01:51:06;;;;;;;3.37;3.07;;;;;;;22.35;54.12;97439.69;5053575;28;20232;-31
2022/11/07 01:53:33;;;;;;;3.27;3.03;;;;;;;22.36;53.89;97438.88;5059502;28;20200;-31
2022/11/07 01:56:01;;;;;;;3.40;3.10;;;;;;;22.41;53.87;97446.66;5043014;28;20224;-31
2022/11/07 01:58:28;;;;;;;3.07;2.87;;;;;;;22.38;53.93;97446.59;5052988;28;20461;-31
2022/11/07 02:00:54;;;;;;;3.17;2.87;;;;;;;22.41;53.91;97462.03;5036176;28;20605;-31
2022/11/07 02:03:21;;;;;;;2.90;2.70;;;;;;;21.70;53.84;97332.19;5052149;28;20212;-31
2022/11/07 02:05:52;;;;;;;3.37;2.90;;;;;;;22.38;54.04;97450.00;5037134;28;20205;-31
2022/11/07 02:08:19;;;;;;;2.93;2.73;;;;;;;22.39;54.03;97456.00;5045044;28;20205;-31
2022/11/07 02:10:45;;;;;;;3.40;3.10;;;;;;;22.39;54.08;97450.88;5035309;28;20208;-31
2022/11/07 02:13:15;;;;;;;3.30;3.00;;;;;;;22.42;53.85;97454.38;5048580;28;20197;-31
2022/11/07 02:15:42;;;;;;;3.00;2.80;;;;;;;22.41;53.90;97454.34;5041368;28;20251;-31
2022/11/07 02:18:08;;;;;;;3.13;2.90;;;;;;;22.41;54.12;97452.63;5044800;28;20275;-31
2022/11/07 02:20:35;;;;;;;3.50;3.03;;;;;;;22.40;54.24;97453.47;5050093;28;20197;-31
2022/11/07 02:23:11;;;;;;;2.90;2.70;;;;;;;22.40;53.98;97447.47;5050186;28;20212;-31
2022/11/07 02:25:38;;;;;;;3.03;2.83;;;;;;;22.27;53.63;97420.72;5050348;28;20216;-31
2022/11/07 02:28:06;;;;;;;2.90;2.70;;;;;;;22.30;53.88;97422.47;5051415;28;20288;-31
2022/11/07 02:30:33;;;;;;;2.93;2.73;;;;;;;22.41;53.82;97441.53;5031217;28;20206;-31
2022/11/07 02:33:01;;;;;;;3.10;2.80;;;;;;;22.39;54.17;97435.50;5065939;28;20208;-31
2022/11/07 02:35:33;;;;;;;2.77;2.57;;;;;;;22.41;53.89;97446.66;5059048;28;20668;-31
2022/11/07 02:38:00;;;;;;;2.93;2.73;;;;;;;22.41;53.89;97446.66;5050414;28;20204;-31
2022/11/07 02:40:27;;;;;;;2.80;2.60;;;;;;;22.41;54.02;97456.91;5050714;28;20228;-31
2022/11/07 02:42:53;;;;;;;2.90;2.70;;;;;;;22.41;53.76;97451.78;5034953;28;20221;-31
2022/11/07 02:45:27;;;;;;;2.87;2.67;;;;;;;22.39;53.75;97448.31;5061869;28;20205;-31
2022/11/07 02:47:54;;;;;;;2.90;2.70;;;;;;;22.41;53.92;97452.63;5051097;28;20205;-31
2022/11/07 02:50:20;;;;;;;3.27;2.97;;;;;;;22.41;53.64;97455.19;5062692;28;20205;-31
2022/11/07 02:52:47;;;;;;;2.90;2.70;;;;;;;22.41;53.96;97460.31;5053649;28;20221;-31
2022/11/07 02:55:14;;;;;;;2.93;2.73;;;;;;;22.41;53.87;97459.47;5050725;28;20201;-31
2022/11/07 02:57:40;;;;;;;3.00;2.80;;;;;;;22.41;53.95;97454.34;5050819;28;20231;-31
2022/11/07 03:00:07;;;;;;;3.13;2.83;;;;;;;22.41;53.90;97454.34;5052062;28;20197;-31
2022/11/07 03:02:34;;;;;;;3.00;2.80;;;;;;;22.41;54.06;97454.34;5050580;28;20232;-31
2022/11/07 03:05:00;;;;;;;2.60;2.40;;;;;;;22.41;53.94;97459.47;5054143;28;20878;-31
2022/11/07 03:07:27;;;;;;;2.80;2.60;;;;;;;22.40;54.05;97457.72;5058874;28;20207;-31
2022/11/07 03:09:53;;;;;;;2.90;2.70;;;;;;;22.36;53.97;97449.13;5056384;28;20670;-31
2022/11/07 03:12:20;;;;;;;2.60;2.40;;;;;;;22.37;53.78;97449.97;5047399;28;20304;-31
2022/11/07 03:14:46;;;;;;;2.77;2.57;;;;;;;22.40;53.67;97465.41;5049889;28;20631;-31
2022/11/07 03:17:13;;;;;;;2.87;2.67;;;;;;;22.39;54.03;97474.81;5048750;28;20228;-31
2022/11/07 03:19:40;;;;;;;2.73;2.53;;;;;;;22.40;54.04;97475.63;5042169;28;20209;-31
2022/11/07 03:22:06;;;;;;;2.70;2.50;;;;;;;22.40;53.93;97473.09;5041956;28;20231;-31
2022/11/07 03:24:33;;;;;;;2.77;2.57;;;;;;;22.40;53.63;97475.63;5047859;28;20666;-31
2022/11/07 03:27:00;;;;;;;3.00;2.70;;;;;;;22.40;53.83;97467.97;5042955;28;20196;-31
2022/11/07 03:29:26;;;;;;;3.47;2.80;;;;;;;22.40;53.85;97481.63;5042955;28;20690;-31
2022/11/07 03:31:53;;;;;;;2.50;2.30;;;;;;;22.40;53.91;97479.09;5046432;28;20227;-31
2022/11/07 03:34:19;;;;;;;2.60;2.40;;;;;;;22.40;53.80;97471.41;5045913;28;20203;-31
2022/11/07 03:36:46;;;;;;;2.50;2.30;;;;;;;22.40;54.00;97465.41;5052961;28;20228;-31
2022/11/07 03:39:12;;;;;;;2.60;2.40;;;;;;;22.40;53.95;97473.97;5040153;28;20212;-31
2022/11/07 03:41:39;;;;;;;2.57;2.37;;;;;;;22.39;53.93;97474.81;5043486;28;20228;-31
2022/11/07 03:44:05;;;;;;;2.87;2.67;;;;;;;22.38;53.93;97475.59;5043315;28;20201;-31
2022/11/07 03:46:32;;;;;;;2.90;2.70;;;;;;;22.40;54.16;97484.19;5048012;28;20193;-30
2022/11/07 03:48:58;;;;;;;2.70;2.50;;;;;;;22.40;53.92;97488.44;5044785;28;20209;-31
2022/11/07 03:51:25;;;;;;;2.53;2.33;;;;;;;22.39;53.97;97494.41;5045895;28;20611;-31
2022/11/07 03:53:51;;;;;;;2.53;2.33;;;;;;;22.41;54.00;97505.56;5053565;28;20667;-30
2022/11/07 03:56:18;;;;;;;2.60;2.40;;;;;;;22.40;53.98;97502.13;5039365;28;20221;-31
2022/11/07 03:58:44;;;;;;;2.40;2.20;;;;;;;22.41;53.93;97510.69;5046202;28;20200;-31
2022/11/07 04:01:12;;;;;;;2.73;2.53;;;;;;;22.41;54.09;97508.13;5048470;28;20224;-31
2022/11/07 04:03:38;;;;;;;2.57;2.37;;;;;;;22.41;53.87;97508.13;5053529;28;20766;-31
2022/11/07 04:06:05;;;;;;;2.60;2.40;;;;;;;22.40;53.71;97512.38;5058594;28;20225;-31
2022/11/07 04:08:31;;;;;;;2.50;2.30;;;;;;;22.40;53.83;97511.50;5049570;28;20229;-31
2022/11/07 04:10:58;;;;;;;2.50;2.30;;;;;;;22.37;53.77;97506.28;5048404;28;20224;-31
2022/11/07 04:18:55;;;;;;;2.70;2.50;;;;;;;22.39;53.87;97509.78;5052519;28;20582;-31
2022/11/07 04:21:22;;;;;;;2.33;2.13;;;;;;;22.41;53.96;97520.94;5053846;28;20228;-31
2022/11/07 04:23:48;;;;;;;2.03;1.93;;;;;;;22.40;54.05;97507.25;5049358;28;20212;-31
2022/11/07 04:29:17;;;;;;;2.30;2.20;;;;;;;22.40;53.91;97511.50;5068587;28;20199;-31
2022/11/07 04:31:43;;;;;;;2.60;2.40;;;;;;;22.40;54.05;97514.94;5050884;28;20224;-31
2022/11/07 04:34:10;;;;;;;2.57;2.20;;;;;;;22.39;54.01;97508.09;5050524;28;20213;-31
2022/11/07 04:36:36;;;;;;;2.60;2.40;;;;;;;22.39;53.96;97517.44;5044357;28;20217;-31
2022/11/07 04:39:03;;;;;;;2.10;2.00;;;;;;;22.40;54.05;97521.72;5044119;28;20204;-31
2022/11/07 04:41:29;;;;;;;2.37;2.17;;;;;;;22.39;54.03;97513.22;5057235;28;20224;-31
2022/11/07 04:43:56;;;;;;;2.30;2.10;;;;;;;22.39;53.94;97510.66;5046509;28;20197;-31
2022/11/07 04:46:23;;;;;;;2.20;2.00;;;;;;;22.40;53.99;97526.84;5060047;28;20204;-31
2022/11/07 04:48:49;;;;;;;2.50;2.30;;;;;;;22.40;53.90;97526.84;5060712;28;20204;-31
2022/11/07 04:51:17;;;;;;;2.77;2.57;;;;;;;22.38;53.78;97520.84;5054140;28;20228;-30
2022/11/07 04:53:44;;;;;;;2.67;2.47;;;;;;;22.40;53.87;97524.28;5061936;28;20211;-31
2022/11/07 04:56:10;;;;;;;2.53;2.33;;;;;;;22.41;53.70;97529.47;5064783;28;20200;-31
2022/11/07 04:58:37;;;;;;;2.20;2.10;;;;;;;22.40;53.99;97527.72;5062621;28;20593;-31
2022/11/07 05:01:03;;;;;;;2.50;2.30;;;;;;;22.33;53.69;97518.16;5053669;28;20229;-31
2022/11/07 05:03:30;;;;;;;2.57;2.37;;;;;;;22.41;53.69;97529.47;5055975;28;20589;-31
2022/11/07 05:05:57;;;;;;;2.40;2.20;;;;;;;22.40;53.95;97524.28;5062339;28;20200;-31
2022/11/07 05:08:23;;;;;;;1.90;1.80;;;;;;;22.40;53.76;97511.50;5062508;28;20220;-31
2022/11/07 05:10:50;;;;;;;2.33;2.13;;;;;;;22.41;53.77;97508.97;5063512;28;20570;-31
2022/11/07 05:13:17;;;;;;;2.13;2.03;;;;;;;22.41;53.99;97508.13;5069949;28;20203;-31
2022/11/07 05:15:43;;;;;;;2.30;2.10;;;;;;;22.37;54.01;97517.41;5066003;28;20228;-31
2022/11/07 05:18:10;;;;;;;2.23;2.10;;;;;;;22.39;53.77;97520.88;5057363;28;20221;-31
2022/11/07 05:20:37;;;;;;;2.30;2.10;;;;;;;22.39;53.83;97523.44;5053063;28;20201;-31
2022/11/07 05:23:17;;;;;;;2.10;2.00;;;;;;;22.40;54.08;97531.97;5056694;28;20204;-31
2022/11/07 05:25:47;;;;;;;2.63;2.43;;;;;;;22.40;53.94;97529.41;5066600;28;20203;-31
2022/11/07 05:28:19;;;;;;;2.20;2.00;;;;;;;22.40;53.87;97531.97;5058787;28;20196;-31
2022/11/07 05:30:59;;;;;;;2.30;2.17;;;;;;;22.40;53.88;97526.84;5051022;28;20231;-31
2022/11/07 05:33:25;;;;;;;2.30;2.10;;;;;;;22.34;53.66;97511.34;5061058;28;20196;-31
2022/11/07 05:35:52;;;;;;;2.07;1.97;;;;;;;22.40;53.95;97524.28;5062998;28;20208;-31
2022/11/07 05:38:19;;;;;;;2.30;2.10;;;;;;;22.40;53.86;97531.97;5058611;28;20312;-31
2022/11/07 05:40:45;;;;;;;2.30;2.20;;;;;;;22.40;53.90;97537.97;5057787;28;20628;-31
2022/11/07 05:43:13;;;;;;;2.43;2.23;;;;;;;22.39;53.55;97543.94;5060237;28;20207;-31
2022/11/07 05:45:42;;;;;;;2.30;2.10;;;;;;;22.40;53.75;97542.22;5062564;28;20205;-31
2022/11/07 05:48:10;;;;;;;2.00;1.90;;;;;;;22.38;53.73;97554.13;5058038;28;20200;-31
2022/11/07 05:50:37;;;;;;;1.80;1.70;;;;;;;22.39;53.83;97553.31;5062948;28;20208;-31
2022/11/07 05:53:03;;;;;;;2.00;1.90;;;;;;;22.40;53.77;97555.03;5056443;28;20208;-31
2022/11/07 05:55:30;;;;;;;2.07;1.97;;;;;;;22.40;53.78;97561.03;5065203;28;20204;-31
2022/11/07 05:57:57;;;;;;;2.10;2.00;;;;;;;22.40;53.85;97565.25;5059590;28;20223;-31
2022/11/07 06:00:27;;;;;;;2.40;2.20;;;;;;;22.40;53.83;97571.25;5052473;28;20202;-31
2022/11/07 06:02:54;;;;;;;2.27;2.07;;;;;;;22.41;53.75;97574.72;5045345;28;20499;-30
2022/11/07 06:05:21;;;;;;;2.00;1.90;;;;;;;22.40;53.88;97573.81;5044619;28;20208;-31
2022/11/07 06:07:49;;;;;;;2.20;2.10;;;;;;;22.40;53.73;97567.81;5042318;28;20205;-31
2022/11/07 06:10:16;;;;;;;1.90;1.80;;;;;;;22.38;53.79;97565.22;5052363;28;20201;-31
2022/11/07 06:12:43;;;;;;;2.33;2.13;;;;;;;22.40;53.84;97578.94;5064708;28;20226;-31
2022/11/07 06:15:09;;;;;;;1.90;1.80;;;;;;;22.41;53.68;97580.66;5063449;28;20733;-31
2022/11/07 06:17:36;;;;;;;2.00;1.90;;;;;;;22.42;53.87;97577.31;5050513;28;20244;-31
2022/11/07 06:20:03;;;;;;;1.93;1.83;;;;;;;22.42;53.44;97576.44;5042365;28;20203;-31
2022/11/07 06:22:30;;;;;;;2.00;1.90;;;;;;;22.42;53.66;97572.19;5040843;28;20255;-31
2022/11/07 06:24:56;;;;;;;2.10;2.00;;;;;;;22.42;53.66;97573.88;5043306;28;20677;-30
2022/11/07 06:27:23;;;;;;;2.23;2.00;;;;;;;22.41;54.00;97575.56;5046003;28;20193;-31
2022/11/07 06:29:49;;;;;;;2.20;2.00;;;;;;;22.42;53.68;97577.31;5052171;28;20201;-31
2022/11/07 06:32:16;;;;;;;2.10;2.00;;;;;;;22.41;54.08;97583.22;5045252;28;20224;-31
2022/11/07 06:34:42;;;;;;;2.23;2.07;;;;;;;22.43;53.89;97581.59;5045546;28;20209;-31
2022/11/07 06:37:09;;;;;;;2.03;1.93;;;;;;;22.43;53.80;97588.41;5049731;28;20260;-31
2022/11/07 06:39:35;;;;;;;1.73;1.63;;;;;;;22.40;53.82;97589.19;5055980;28;20288;-30
2022/11/07 06:42:02;;;;;;;1.93;1.83;;;;;;;22.44;53.83;97592.72;5061148;28;20224;-31
2022/11/07 06:44:28;;;;;;;2.10;2.00;;;;;;;22.42;53.83;97595.22;5051405;28;20197;-31
2022/11/07 06:46:55;;;;;;;2.50;2.30;;;;;;;22.38;53.96;97583.16;5056749;28;20204;-31
2022/11/07 06:49:21;;;;;;;2.30;2.10;;;;;;;22.42;53.79;97590.13;5050379;28;20678;-31
2022/11/07 06:51:48;;;;;;;2.10;1.90;;;;;;;22.40;53.63;97578.94;5057966;28;20732;-31
2022/11/07 06:54:14;;;;;;;2.20;2.00;;;;;;;22.43;53.94;97593.50;5050671;28;20208;-31
2022/11/07 06:56:41;;;;;;;2.10;2.00;;;;;;;22.44;54.19;97603.81;5045634;28;20208;-31
2022/11/07 06:59:07;;;;;;;1.90;1.80;;;;;;;22.43;53.66;97604.63;5059540;28;20203;-31
2022/11/07 07:01:34;;;;;;;2.00;1.90;;;;;;;22.41;53.21;97600.31;5057866;28;20710;-31
2022/11/07 07:04:00;;;;;;;1.90;1.80;;;;;;;22.44;53.63;97608.94;5054494;28;20232;-31
2022/11/07 07:06:27;;;;;;;5.07;3.00;;;;;;;22.45;53.58;97607.25;5051080;28;20592;-31
2022/11/07 07:08:53;;;;;;;6.80;2.90;;;;;;;22.44;52.25;97601.25;5038230;28;20200;-31
2022/11/07 07:11:20;;;;;;;7.70;3.67;;;;;;;22.45;50.64;97604.69;5051053;28;20232;-31
2022/11/07 07:13:47;;;;;;;12.90;4.70;;;;;;;22.45;49.49;97614.94;5045479;28;20201;-31
2022/11/07 07:16:13;;;;;;;10.47;4.90;;;;;;;22.43;48.75;97620.00;5044099;28;20205;-31
2022/11/07 07:18:40;;;;;;;10.03;4.50;;;;;;;22.43;48.98;97621.69;5048764;28;20237;-31
2022/11/07 07:21:11;;;;;;;7.07;4.57;;;;;;;22.42;49.80;97631.09;5052403;28;20576;-31
2022/11/07 07:23:37;;;;;;;7.47;3.87;;;;;;;22.40;50.24;97624.16;5039702;28;20660;-31
2022/11/07 07:26:06;;;;;;;7.83;4.43;;;;;;;22.41;50.34;97633.59;5049106;28;20454;-31
2022/11/07 07:28:33;;;;;;;7.03;3.77;;;;;;;22.40;50.52;97635.28;5042799;28;20196;-31
2022/11/07 07:31:14;;;;;;;7.33;4.37;;;;;;;22.39;49.84;97636.13;5045435;28;20221;-31
2022/11/07 07:33:41;;;;;;;12.37;5.23;;;;;;;22.37;48.55;97624.06;5045200;28;20583;-31
2022/11/07 07:36:08;;;;;;;7.03;4.73;;;;;;;22.38;48.69;97631.81;5048343;28;20209;-31
2022/11/07 07:38:34;;;;;;;7.50;4.50;;;;;;;22.36;49.12;97641.16;5048720;28;20722;-31
2022/11/07 07:41:01;;;;;;;10.43;4.87;;;;;;;22.37;49.22;97639.44;5059910;28;20602;-31
2022/11/07 07:43:28;;;;;;;11.13;4.30;;;;;;;22.37;49.96;97631.75;5041494;28;20212;-31
2022/11/07 07:46:04;;;;;;;6.30;4.50;;;;;;;22.37;50.45;97639.44;5045541;28;20209;-31
2022/11/07 07:48:31;;;;;;;7.80;4.53;;;;;;;22.36;50.52;97638.59;5043486;28;20194;-31
2022/11/07 07:50:57;;;;;;;6.73;4.60;;;;;;;22.36;50.65;97638.59;5048896;28;20221;-31
2022/11/07 07:53:24;;;;;;;5.87;4.10;;;;;;;22.36;50.80;97632.59;5043160;28;20205;-31
2022/11/07 07:55:55;;;;;;;6.23;4.27;;;;;;;22.37;51.08;97631.75;5043177;28;20196;-31
2022/11/07 07:58:22;;;;;;;5.83;3.97;;;;;;;22.35;51.04;97631.72;5043282;28;20224;-31
2022/11/07 08:00:51;;;;;;;6.80;4.13;;;;;;;22.31;51.24;97631.59;5043760;28;20205;-31
2022/11/07 08:03:17;;;;;;;7.73;4.40;;;;;;;22.36;51.49;97637.72;5044664;28;20286;-31
2022/11/07 08:05:53;;;;;;;5.23;4.17;;;;;;;22.36;51.44;97636.03;5043468;28;20235;-31
2022/11/07 08:08:19;;;;;;;6.13;3.87;;;;;;;22.35;51.44;97636.84;5042503;28;20207;-31
2022/11/07 08:10:52;;;;;;;5.83;4.30;;;;;;;22.36;51.63;97645.41;5047458;28;20201;-31
2022/11/07 08:13:20;;;;;;;5.73;3.77;;;;;;;22.36;51.72;97647.97;5042835;28;20201;-31
2022/11/07 08:15:46;;;;;;;5.20;3.40;;;;;;;22.35;51.58;97644.53;5046714;28;20209;-31
2022/11/07 08:18:13;;;;;;;6.57;4.33;;;;;;;22.36;51.86;97651.41;5042630;28;20224;-31
2022/11/07 08:20:39;;;;;;;5.20;4.10;;;;;;;22.33;51.89;97646.19;5046691;28;20204;-31
2022/11/07 08:23:07;;;;;;;5.43;3.80;;;;;;;22.37;51.62;97650.56;5049538;28;20207;-30
2022/11/07 08:25:42;;;;;;;5.03;3.80;;;;;;;22.37;51.65;97654.81;5048390;28;20200;-31
2022/11/07 08:28:08;;;;;;;7.50;3.67;;;;;;;22.38;51.76;97659.97;5048603;28;20695;-31
2022/11/07 08:30:35;;;;;;;5.50;3.80;;;;;;;22.38;51.61;97649.72;5042412;28;20699;-31
2022/11/07 08:33:02;;;;;;;4.20;3.60;;;;;;;22.39;51.72;97660.84;5045076;28;20642;-31
2022/11/07 08:35:31;;;;;;;5.57;3.80;;;;;;;22.29;51.95;97654.59;5046576;28;20219;-31
2022/11/07 08:38:03;;;;;;;4.60;3.80;;;;;;;22.39;51.94;97659.16;5040303;28;20230;-30
2022/11/07 08:40:30;;;;;;;5.50;3.70;;;;;;;22.39;51.99;97666.84;5037592;28;20209;-30
2022/11/07 08:42:59;;;;;;;4.53;3.43;;;;;;;22.40;52.04;97668.56;5036732;28;20225;-31
2022/11/07 08:45:26;;;;;;;5.20;3.67;;;;;;;22.40;52.01;97657.47;5041011;28;20215;-31
2022/11/07 08:47:57;;;;;;;6.60;4.07;;;;;;;22.39;52.11;97659.16;5037815;28;20231;-31
2022/11/07 08:50:24;;;;;;;5.80;3.57;;;;;;;22.39;52.13;97663.41;5043645;28;20377;-31
2022/11/07 08:52:50;;;;;;;4.63;3.40;;;;;;;22.39;51.67;97659.16;5042336;28;20228;-31
2022/11/07 08:55:17;;;;;;;5.67;3.30;;;;;;;22.40;52.19;97660.00;5050580;28;20196;-31
2022/11/07 08:57:43;;;;;;;5.10;3.40;;;;;;;22.36;52.43;97648.84;5036734;28;20707;-31
2022/11/07 09:00:10;;;;;;;4.50;3.10;;;;;;;21.76;52.11;97544.69;5047054;28;20205;-31
2022/11/07 09:02:37;;;;;;;5.10;3.20;;;;;;;22.40;52.73;97652.34;5047430;28;20624;-31
2022/11/07 09:05:23;;;;;;;5.63;3.63;;;;;;;22.40;52.26;97657.47;5042734;28;20664;-31
2022/11/07 09:07:50;;;;;;;3.43;3.13;;;;;;;22.42;52.11;97653.25;5044853;28;20204;-31
2022/11/07 09:10:16;;;;;;;5.03;3.60;;;;;;;22.41;51.95;97659.22;5046104;28;20201;-31
2022/11/07 09:12:44;;;;;;;7.20;3.60;;;;;;;22.40;52.19;97663.47;5045072;28;20221;-31
2022/11/07 09:15:11;;;;;;;4.53;3.27;;;;;;;22.41;52.08;97660.06;5041221;28;20292;-30
2022/11/07 09:17:37;;;;;;;5.03;3.30;;;;;;;22.42;52.49;97658.38;5048949;28;20407;-31
2022/11/07 09:20:04;;;;;;;6.23;3.67;;;;;;;22.35;52.14;97652.22;5044595;28;20204;-31
2022/11/07 09:22:31;;;;;;;5.83;3.27;;;;;;;22.42;52.50;97660.94;5045351;28;20315;-31
2022/11/07 09:24:57;;;;;;;4.87;3.27;;;;;;;22.42;52.30;97659.25;5045399;28;20201;-31
2022/11/07 09:27:24;;;;;;;4.00;3.30;;;;;;;22.40;52.25;97663.47;5052918;28;20215;-31
2022/11/07 09:29:50;;;;;;;5.87;3.30;;;;;;;22.39;52.35;97655.72;5047951;28;20223;-31
2022/11/07 09:32:17;;;;;;;4.23;3.20;;;;;;;22.41;52.31;97659.22;5043296;28;20346;-31
2022/11/07 09:35:03;;;;;;;4.93;3.20;;;;;;;22.42;52.49;97666.94;5049244;28;20237;-31
2022/11/07 09:37:30;;;;;;;4.27;3.13;;;;;;;22.42;52.48;97663.50;5050694;28;20287;-31
2022/11/07 09:39:57;;;;;;;3.97;3.10;;;;;;;22.42;52.42;97661.81;5048596;28;20201;-31
2022/11/07 09:42:32;;;;;;;3.47;2.80;;;;;;;22.41;52.52;97667.75;5048896;28;20221;-31
2022/11/07 09:44:59;;;;;;;4.00;3.10;;;;;;;22.42;52.52;97666.06;5048667;28;20200;-31
2022/11/07 09:47:32;;;;;;;3.33;2.80;;;;;;;22.34;52.54;97647.91;5044961;28;20201;-31
2022/11/07 09:50:00;;;;;;;3.53;3.20;;;;;;;22.33;52.48;97648.75;5049863;28;20207;-31
2022/11/07 09:52:30;;;;;;;3.47;3.17;;;;;;;22.42;52.42;97661.81;5032421;28;20707;-31
2022/11/07 09:55:25;;;;;;;4.27;3.10;;;;;;;22.43;52.52;97666.09;5047346;28;20687;-31
2022/11/07 09:57:58;;;;;;;4.87;3.10;;;;;;;22.41;52.48;97664.34;5047668;28;20232;-31
2022/11/07 10:00:25;;;;;;;3.67;2.90;;;;;;;22.40;52.40;97676.25;5046348;28;20236;-31
2022/11/07 10:02:56;;;;;;;4.47;3.00;;;;;;;22.43;52.41;97675.47;5031968;28;20234;-31
2022/11/07 10:05:32;;;;;;;4.13;3.17;;;;;;;22.43;52.73;97678.91;5045448;28;20297;-31
2022/11/07 10:08:27;;;;;;;3.90;2.97;;;;;;;22.34;52.43;97662.41;5048609;28;20245;-31
2022/11/07 10:10:58;;;;;;;3.40;2.67;;;;;;;22.34;52.63;97659.84;5051900;28;20225;-31
2022/11/07 10:13:40;;;;;;;3.33;2.87;;;;;;;22.43;52.51;97671.22;5031480;28;20205;-31
2022/11/07 10:16:31;;;;;;;5.30;2.90;;;;;;;22.43;52.83;97670.34;5046117;28;20216;-31
2022/11/07 10:19:05;;;;;;;4.57;3.10;;;;;;;22.42;52.68;97672.06;5046387;28;20241;-31
2022/11/07 10:21:56;;;;;;;3.57;2.67;;;;;;;22.42;52.72;97677.19;5044726;28;20231;-31
2022/11/07 10:24:47;;;;;;;3.20;2.83;;;;;;;22.40;52.82;97675.38;5054215;28;20197;-30
2022/11/07 10:27:14;;;;;;;3.37;2.70;;;;;;;22.42;52.64;97672.06;5056820;28;20211;-31
2022/11/07 10:29:40;;;;;;;3.50;2.57;;;;;;;22.42;52.72;97668.63;5050481;28;20201;-31
2022/11/07 10:32:10;;;;;;;4.30;2.70;;;;;;;22.43;52.62;97666.09;5044684;28;20224;-31
2022/11/07 10:34:39;;;;;;;3.53;2.90;;;;;;;22.39;52.50;97663.41;5045576;28;20208;-31
2022/11/07 10:37:07;;;;;;;3.10;2.60;;;;;;;22.44;52.42;97666.97;5029302;28;20201;-31
2022/11/07 10:39:34;;;;;;;2.83;2.53;;;;;;;22.44;52.72;97664.41;5039091;28;20235;-31
2022/11/07 10:42:09;;;;;;;4.73;2.63;;;;;;;22.43;52.79;97665.22;5050200;28;20219;-31
2022/11/07 10:44:37;;;;;;;3.27;2.43;;;;;;;22.44;52.36;97666.97;5046692;28;20205;-31
2022/11/07 10:47:22;;;;;;;6.60;2.60;;;;;;;22.44;52.66;97664.41;5040761;28;20476;-31
2022/11/07 10:49:57;;;;;;;2.67;2.47;;;;;;;22.43;52.81;97655.84;5061766;28;20197;-31
2022/11/07 10:52:23;;;;;;;2.93;2.43;;;;;;;22.43;52.82;97655.84;5042880;28;20220;-31
2022/11/07 10:54:50;;;;;;;2.80;2.50;;;;;;;22.43;52.85;97663.53;5044022;28;20215;-31
2022/11/07 10:57:21;;;;;;;3.40;2.73;;;;;;;22.43;52.76;97658.41;5045238;28;20216;-31
2022/11/07 10:59:51;;;;;;;3.00;2.50;;;;;;;22.43;52.97;97653.28;5042347;28;20252;-31
2022/11/07 11:02:20;;;;;;;3.20;2.70;;;;;;;22.41;53.02;97652.38;5045614;28;20231;-31
2022/11/07 11:04:48;;;;;;;3.20;2.50;;;;;;;22.43;52.85;97655.84;5041071;28;20296;-31
2022/11/07 11:07:17;;;;;;;2.87;2.57;;;;;;;22.43;53.01;97653.28;5048565;28;20671;-31
2022/11/07 11:09:52;;;;;;;2.90;2.70;;;;;;;22.42;52.98;97656.69;5051157;28;20197;-31
2022/11/07 11:12:32;;;;;;;2.60;2.33;;;;;;;22.43;52.96;97648.19;5045352;28;20601;-31
2022/11/07 11:15:03;;;;;;;2.67;2.43;;;;;;;22.45;53.00;97650.78;5046683;28;20227;-31
2022/11/07 11:17:29;;;;;;;2.70;2.30;;;;;;;22.44;52.96;97649.06;5038814;28;20214;-31
2022/11/07 11:19:56;;;;;;;2.70;2.50;;;;;;;22.44;52.98;97638.81;5046563;28;20782;-31
2022/11/07 11:22:23;;;;;;;5.13;2.70;;;;;;;22.39;53.01;97633.56;5047275;28;20257;-31
2022/11/07 11:25:24;;;;;;;3.20;2.80;;;;;;;22.44;52.97;97636.25;5031348;28;20687;-31
2022/11/07 11:27:57;;;;;;;3.40;2.60;;;;;;;22.43;52.90;97625.13;5040422;28;20209;-31
2022/11/07 11:30:23;;;;;;;6.40;2.77;;;;;;;22.44;52.32;97614.03;5045078;28;20201;-31
2022/11/07 11:33:05;;;;;;;3.23;2.60;;;;;;;22.44;52.23;97614.03;5037019;28;20227;-31
2022/11/07 11:35:50;;;;;;;5.90;2.70;;;;;;;22.37;52.29;97598.47;5042378;28;20220;-31
2022/11/07 11:38:32;;;;;;;3.10;2.40;;;;;;;22.43;52.87;97614.00;5023573;28;20235;-31
2022/11/07 11:41:01;;;;;;;3.53;2.70;;;;;;;22.41;52.92;97606.28;5046719;28;20905;-31
2022/11/07 11:43:40;;;;;;;6.03;2.97;;;;;;;22.34;52.63;97598.38;5042107;28;20193;-31
2022/11/07 11:46:25;;;;;;;4.93;2.87;;;;;;;22.42;52.77;97609.72;5028222;28;20205;-31
2022/11/07 11:48:55;;;;;;;6.83;2.93;;;;;;;22.41;52.87;97601.16;5044868;28;20212;-31
2022/11/07 11:51:41;;;;;;;6.67;2.77;;;;;;;22.29;52.76;97584.63;5025142;28;20264;-31
2022/11/07 11:54:08;;;;;;;3.60;2.43;;;;;;;22.41;52.89;97602.88;5059527;28;20204;-31